メインページ
METAR-TAF:

METAR-TAF

空港 :

コスラエ国際空港

コスラエ州, ミクロネシア

緯度: 05-21N, 経度: 162-57E, 海抜: 3m

現時点の気象観測

当レポートは1時間13分前の00:50(UTC)に作成
の風 8kt
気温 31°C
湿度 71%
気圧 1009 hPa
視程: 16.1km
高度2200ftの雲は散在している
高度30000ftの千切れ雲あり

METAR: PTSA 160050Z 35008KT 10SM SCT022 BKN300 31/25 A2979

時間: 13:03 (02:03 UTC)

予報

当レポートは2時間28分前の23:35(UTC)に作成
予報は16日の 00時(UTC)から 16日の 24時(UTC)まで有効
変向風 6kt
視程: 10km
高度2000ftの雲は散在している
高度13000ftの千切れ雲あり
近辺でにわか雨

TAF: PTSA 152335Z 1600/1624 VRB06KT P6SM VCSH SCT020 BKN130

4,000以上の空港の気象観測と天気予報(METAR報とTAF報)

利用可能な観測所は地図上に黄色い丸と赤い丸で示す。

丸の上にカーソルを重ねると観測所名を参照できる。

次にクリックすると気象観測と天気予報を参照できる。

マップの切り替え:黒色「×」印の緑ボタンをクリックして拡大、「-」印の緑ボタンをクリックして縮小、緑色の三角印をクリックして隣りの地図に切り替え


METAR-TAF: